Terminal Aerodrome Forecast
Issued by NWS

Home | Current Version | Previous Version | Text Only | Print | Product List | Glossary On
Versions: 1 2 3 4 5 6 7 8 9 10 11 12 13 14 15 16
078
FTUS41 KBGM 251735
TAFRME
TAF
KRME 251735Z 2518/2618 18012G22KT 5SM SHRA BR SCT015 OVC035
      TEMPO 2518/2520 22025G35KT 2SM +TSRA BR OVC015CB
     FM252200 28010G18KT P6SM -SHRA SCT025 OVC035
     FM260100 28012G22KT P6SM -SHSN BKN025 OVC035
     FM261000 28012G22KT 3SM -SHSN OVC022=

USA.gov is the U.S. government's official web portal to all federal, state and local government web resources and services.